Time;durP1;ratioP1;P1;durP2;ratioP2;P2;SDS_P1;SDS_P2;PMS_P1;PMS_P2;Temp;Humidity;BMP_temperature;BMP_pressure;BME280_temperature;BME280_humidity;BME280_pressure;Samples;Min_cycle;Max_cycle;Signal;HPM_P1;HPM_P2
2022/09/06 00:00:09;;;;;;;0.00;0.00;;;;;;;18.81;86.64;96676.78;5059094;28;20538;-75
2022/09/06 00:02:38;;;;;;;0.35;0.00;;;;;;;18.73;86.89;96678.28;5077894;28;20231;-75
2022/09/06 00:05:04;;;;;;;0.00;0.00;;;;;;;18.70;87.49;96675.34;5077822;28;20347;-76
2022/09/06 00:07:30;;;;;;;0.00;0.00;;;;;;;18.65;88.18;96685.16;5049764;28;20032;-75
2022/09/06 00:09:56;;;;;;;0.00;0.00;;;;;;;18.64;89.33;96688.94;5078520;28;20036;-75
2022/09/06 00:12:22;;;;;;;0.00;0.00;;;;;;;18.65;87.74;96682.44;5075947;28;20040;-75
2022/09/06 00:14:48;;;;;;;0.00;0.00;;;;;;;18.59;90.51;96674.66;5066765;28;20562;-75
2022/09/06 00:17:14;;;;;;;0.10;0.10;;;;;;;18.64;91.05;96678.09;5078827;28;20078;-75
2022/09/06 00:19:39;;;;;;;0.05;0.05;;;;;;;18.64;90.67;96680.81;5081179;28;20475;-75
2022/09/06 00:22:05;;;;;;;0.00;0.00;;;;;;;18.55;91.86;96677.16;5059226;28;20043;-75
2022/09/06 00:24:30;;;;;;;0.45;0.10;;;;;;;18.53;91.27;96673.94;5079649;28;20041;-76
2022/09/06 00:26:56;;;;;;;0.00;0.00;;;;;;;18.64;91.31;96674.59;5066097;28;20660;-75
2022/09/06 00:29:21;;;;;;;0.30;0.08;;;;;;;18.69;90.63;96671.03;5079990;28;20044;-75
2022/09/06 00:31:46;;;;;;;0.00;0.00;;;;;;;18.65;91.20;96665.34;5076610;28;20041;-75
2022/09/06 00:34:12;;;;;;;0.10;0.00;;;;;;;18.57;93.31;96663.31;5080637;28;20577;-75
2022/09/06 00:36:37;;;;;;;0.00;0.00;;;;;;;18.55;92.11;96663.63;5058508;28;20032;-76
2022/09/06 00:39:03;;;;;;;0.08;0.00;;;;;;;18.52;93.74;96647.97;5079433;28;20044;-75
2022/09/06 00:41:29;;;;;;;0.30;0.00;;;;;;;18.48;94.46;96648.84;5079199;28;20177;-75
2022/09/06 00:43:54;;;;;;;0.00;0.00;;;;;;;18.45;94.64;96652.94;5078978;28;20501;-75
2022/09/06 00:46:23;;;;;;;0.00;0.00;;;;;;;18.52;93.50;96649.84;5078359;28;20517;-75
2022/09/06 00:48:52;;;;;;;0.20;0.00;;;;;;;18.58;93.94;96641.34;5080567;28;20032;-75
2022/09/06 00:51:22;;;;;;;0.00;0.00;;;;;;;18.54;94.80;96647.66;5075211;28;20035;-75
2022/09/06 00:53:48;;;;;;;0.00;0.00;;;;;;;18.56;94.89;96640.03;5079418;28;20118;-75
2022/09/06 00:56:14;;;;;;;0.00;0.00;;;;;;;18.54;94.98;96637.63;5077727;28;20085;-75
2022/09/06 00:58:40;;;;;;;0.00;0.00;;;;;;;18.59;94.19;96651.06;5059543;28;20437;-75
2022/09/06 01:01:06;;;;;;;0.15;0.10;;;;;;;18.61;94.78;96639.97;5076734;28;20039;-75
2022/09/06 01:03:33;;;;;;;0.28;0.10;;;;;;;18.64;95.30;96652.91;5076107;28;20040;-75
2022/09/06 01:06:16;;;;;;;0.00;0.00;;;;;;;18.67;95.32;96663.19;5080253;28;20113;-75
2022/09/06 01:09:06;;;;;;;0.00;0.00;;;;;;;18.76;94.94;96663.34;5077694;28;20548;-75
2022/09/06 01:11:54;;;;;;;0.00;0.00;;;;;;;18.82;94.14;96665.66;5057058;28;20040;-75
2022/09/06 01:14:34;;;;;;;0.00;0.00;;;;;;;18.77;94.59;96662.25;5077608;28;20118;-75
2022/09/06 01:17:48;;;;;;;0.22;0.00;;;;;;;18.76;95.44;96666.84;5076907;28;20040;-75
2022/09/06 01:20:33;;;;;;;0.00;0.00;;;;;;;18.84;95.13;96674.31;5075566;28;20135;-75
2022/09/06 01:23:23;;;;;;;0.10;0.00;;;;;;;18.85;95.85;96691.38;5077404;28;20039;-75
2022/09/06 01:26:12;;;;;;;0.00;0.00;;;;;;;18.50;99.74;96712.44;5076774;28;20048;-75
2022/09/06 01:28:47;;;;;;;0.00;0.00;;;;;;;18.76;95.75;96723.78;5076586;28;20040;-75
2022/09/06 01:31:19;;;;;;;0.08;0.00;;;;;;;19.10;93.42;96728.94;5079723;28;20119;-75
2022/09/06 01:34:04;;;;;;;0.32;0.05;;;;;;;19.30;91.90;96716.09;5078450;28;20043;-75
2022/09/06 01:36:36;;;;;;;0.00;0.00;;;;;;;19.36;91.02;96713.00;5037248;28;20031;-75
2022/09/06 01:39:02;;;;;;;0.00;0.00;;;;;;;19.40;90.51;96719.47;5056598;28;20048;-75
2022/09/06 01:41:28;;;;;;;0.00;0.00;;;;;;;19.41;90.00;96726.50;5058473;28;20082;-75
2022/09/06 01:43:55;;;;;;;0.17;0.00;;;;;;;19.40;90.34;96727.59;5056676;28;20066;-75
2022/09/06 01:46:38;;;;;;;0.00;0.00;;;;;;;19.40;90.59;96735.75;5054896;28;20519;-75
2022/09/06 01:49:37;;;;;;;0.15;0.00;;;;;;;19.39;90.37;96733.34;5058077;28;20055;-76
2022/09/06 01:52:14;;;;;;;0.00;0.00;;;;;;;19.41;90.13;96744.69;5057151;28;20348;-76
2022/09/06 01:54:58;;;;;;;0.00;0.00;;;;;;;19.46;90.95;96731.03;5057513;28;20037;-76
2022/09/06 01:57:45;;;;;;;0.00;0.00;;;;;;;19.52;90.21;96727.09;5054078;28;20076;-76
2022/09/06 02:00:14;;;;;;;0.00;0.00;;;;;;;19.53;89.62;96736.06;5059263;28;20036;-75
2022/09/06 02:03:09;;;;;;;0.00;0.00;;;;;;;19.54;90.46;96741.22;5056034;28;20033;-76
2022/09/06 02:05:44;;;;;;;0.00;0.00;;;;;;;19.51;90.08;96740.97;5056559;28;20052;-76
2022/09/06 02:08:31;;;;;;;0.10;0.00;;;;;;;19.47;91.96;96746.22;5056054;28;20048;-76
2022/09/06 02:11:02;;;;;;;0.25;0.00;;;;;;;19.43;90.48;96746.00;5058040;28;20483;-76
2022/09/06 02:13:55;;;;;;;0.10;0.00;;;;;;;19.46;90.43;96745.41;5051282;28;20338;-76
2022/09/06 02:16:25;;;;;;;0.00;0.00;;;;;;;19.45;89.58;96741.09;5055186;28;20317;-76
2022/09/06 02:18:53;;;;;;;0.00;0.00;;;;;;;19.40;91.93;96748.50;5040815;28;20491;-75
2022/09/06 02:21:25;;;;;;;0.00;0.00;;;;;;;19.15;93.82;96745.13;5056388;28;20289;-76
2022/09/06 02:23:54;;;;;;;0.10;0.00;;;;;;;19.08;94.77;96739.28;5056873;28;20040;-75
2022/09/06 02:26:26;;;;;;;0.10;0.00;;;;;;;19.07;94.06;96736.88;5058243;28;20562;-76
2022/09/06 02:28:52;;;;;;;0.00;0.00;;;;;;;19.01;96.35;96748.88;5039573;28;20481;-76
2022/09/06 02:31:30;;;;;;;0.00;0.00;;;;;;;18.81;99.01;96739.94;5036137;28;20119;-75
2022/09/06 02:33:56;;;;;;;0.00;0.00;;;;;;;18.71;100.00;96739.31;5058513;28;20036;-76
2022/09/06 02:36:22;;;;;;;0.00;0.00;;;;;;;18.77;98.71;96743.56;5076694;28;20051;-76
2022/09/06 02:38:47;;;;;;;0.00;0.00;;;;;;;18.69;100.00;96736.88;5077616;28;20039;-76
2022/09/06 02:41:15;;;;;;;0.00;0.00;;;;;;;18.75;100.00;96737.59;5076178;28;20498;-76
2022/09/06 02:43:43;;;;;;;0.00;0.00;;;;;;;18.72;100.00;96727.34;5076752;28;20051;-75
2022/09/06 02:46:09;;;;;;;0.00;0.00;;;;;;;18.77;100.00;96727.28;5075568;28;20063;-76
2022/09/06 02:48:35;;;;;;;0.00;0.00;;;;;;;18.67;100.00;96730.13;5073204;28;20146;-75
2022/09/06 02:51:05;;;;;;;0.00;0.00;;;;;;;18.58;100.00;96709.09;5076444;28;20115;-76
2022/09/06 02:53:30;;;;;;;0.00;0.00;;;;;;;18.52;100.00;96698.59;5076584;28;20033;-76
2022/09/06 02:55:56;;;;;;;0.00;0.00;;;;;;;18.63;100.00;96700.09;5078397;28;20533;-76
2022/09/06 02:58:23;;;;;;;0.00;0.00;;;;;;;18.64;100.00;96683.53;5077495;28;20085;-75
2022/09/06 03:00:50;;;;;;;0.00;0.00;;;;;;;18.70;100.00;96686.19;5057653;28;20032;-75
2022/09/06 03:03:15;;;;;;;0.00;0.00;;;;;;;18.72;100.00;96697.53;5056866;28;20075;-75
2022/09/06 03:05:45;;;;;;;0.00;0.00;;;;;;;18.66;100.00;96691.38;5077348;28;20142;-75
2022/09/06 03:08:10;;;;;;;0.00;0.00;;;;;;;18.68;100.00;96688.38;5042341;28;20047;-76
2022/09/06 03:10:36;;;;;;;0.15;0.00;;;;;;;18.69;100.00;96681.88;5075273;28;20036;-75
2022/09/06 03:13:02;;;;;;;0.10;0.00;;;;;;;18.71;100.00;96677.75;5073326;28;20044;-76
2022/09/06 03:15:27;;;;;;;0.20;0.10;;;;;;;18.80;100.00;96669.78;5056918;28;20435;-76
2022/09/06 03:17:57;;;;;;;0.00;0.00;;;;;;;18.86;100.00;96674.00;5074604;28;20119;-75
2022/09/06 03:20:22;;;;;;;0.00;0.00;;;;;;;18.88;100.00;96674.50;5074400;28;20032;-76
2022/09/06 03:22:48;;;;;;;0.15;0.10;;;;;;;18.84;100.00;96671.59;5073973;28;20050;-76
2022/09/06 03:25:13;;;;;;;0.00;0.00;;;;;;;18.76;100.00;96661.44;5079800;28;20032;-76
2022/09/06 03:27:39;;;;;;;0.00;0.00;;;;;;;18.73;100.00;96648.47;5079277;28;20117;-75
2022/09/06 03:30:06;;;;;;;0.10;0.00;;;;;;;18.55;100.00;96658.19;5076978;28;20040;-76
2022/09/06 03:32:31;;;;;;;0.10;0.00;;;;;;;18.55;100.00;96655.50;5059492;28;20093;-76
2022/09/06 03:34:58;;;;;;;0.03;0.00;;;;;;;18.60;100.00;96660.03;5080049;28;20053;-73
2022/09/06 03:37:23;;;;;;;0.00;0.00;;;;;;;18.61;100.00;96653.50;5076135;28;20807;-76
2022/09/06 03:39:49;;;;;;;0.00;0.00;;;;;;;18.52;100.00;96649.84;5077839;28;20047;-76
2022/09/06 03:42:14;;;;;;;0.08;0.00;;;;;;;18.40;100.00;96638.66;5058876;28;20137;-76
2022/09/06 03:44:39;;;;;;;0.00;0.00;;;;;;;18.32;100.00;96642.84;5080492;28;20044;-76
2022/09/06 03:47:05;;;;;;;0.00;0.00;;;;;;;18.05;100.00;96644.31;5074273;28;20082;-75
2022/09/06 03:49:30;;;;;;;0.00;0.00;;;;;;;17.93;100.00;96648.53;5076320;28;20047;-75
2022/09/06 03:51:56;;;;;;;0.00;0.00;;;;;;;17.89;100.00;96639.34;5080200;28;20496;-74
2022/09/06 03:54:23;;;;;;;0.00;0.00;;;;;;;17.84;100.00;96650.25;5059992;28;20043;-75
2022/09/06 03:56:48;;;;;;;0.08;0.00;;;;;;;17.71;100.00;96657.19;5075838;28;20036;-74
2022/09/06 03:59:14;;;;;;;0.20;0.00;;;;;;;17.65;100.00;96653.69;5078501;28;20041;-74
2022/09/06 04:01:39;;;;;;;0.10;0.00;;;;;;;17.56;100.00;96650.00;5077579;28;20054;-75
2022/09/06 04:04:05;;;;;;;0.17;0.00;;;;;;;17.45;100.00;96637.72;5077327;28;20060;-75
2022/09/06 04:06:30;;;;;;;0.45;0.00;;;;;;;17.40;100.00;96633.16;5072400;28;20170;-75
2022/09/06 04:08:56;;;;;;;0.30;0.10;;;;;;;17.34;100.00;96630.78;5081206;28;20044;-74
2022/09/06 04:11:21;;;;;;;0.65;0.13;;;;;;;17.27;100.00;96631.13;5076324;28;20056;-74
2022/09/06 04:13:47;;;;;;;0.10;0.00;;;;;;;17.07;100.00;96629.44;5060166;28;20653;-74
2022/09/06 04:16:13;;;;;;;0.00;0.00;;;;;;;16.91;100.00;96614.47;5078428;28;20043;-74
2022/09/06 04:18:39;;;;;;;0.00;0.00;;;;;;;16.75;100.00;96597.59;5076882;28;20253;-75
2022/09/06 04:21:04;;;;;;;0.25;0.10;;;;;;;16.50;100.00;96611.25;5079742;28;20090;-75
2022/09/06 04:23:30;;;;;;;0.00;0.00;;;;;;;16.46;100.00;96615.63;5079918;28;20546;-75
2022/09/06 04:25:57;;;;;;;0.00;0.00;;;;;;;16.41;100.00;96606.47;5079931;28;20079;-75
2022/09/06 04:28:23;;;;;;;0.10;0.10;;;;;;;16.38;100.00;96612.44;5077187;28;20036;-75
2022/09/06 04:31:15;;;;;;;0.00;0.00;;;;;;;16.47;100.00;96611.84;5076870;28;20485;-75
2022/09/06 04:33:40;;;;;;;0.43;0.10;;;;;;;16.42;100.00;96616.19;5073275;28;20055;-75
2022/09/06 04:36:08;;;;;;;0.20;0.10;;;;;;;16.27;100.00;96619.00;5078504;28;20058;-75
2022/09/06 04:38:44;;;;;;;0.28;0.10;;;;;;;16.15;100.00;96623.94;5077014;28;20073;-75
2022/09/06 04:41:12;;;;;;;0.13;0.00;;;;;;;16.17;100.00;96619.88;5076474;28;20067;-75
2022/09/06 04:43:38;;;;;;;0.17;0.10;;;;;;;16.18;100.00;96628.75;5075110;28;20236;-75
2022/09/06 04:46:14;;;;;;;0.03;0.00;;;;;;;16.18;100.00;96623.38;5077581;28;20144;-75
2022/09/06 04:48:40;;;;;;;0.00;0.00;;;;;;;16.16;100.00;96610.16;5073777;28;20100;-75
2022/09/06 04:51:05;;;;;;;0.00;0.00;;;;;;;16.12;100.00;96617.22;5077979;28;20032;-74
2022/09/06 04:53:30;;;;;;;0.00;0.00;;;;;;;16.19;100.00;96625.00;5076080;28;20145;-74
2022/09/06 04:55:57;;;;;;;0.10;0.08;;;;;;;16.09;100.00;96623.16;5079461;28;20051;-74
2022/09/06 04:58:22;;;;;;;0.08;0.00;;;;;;;15.86;100.00;96634.63;5055420;28;20927;-74
2022/09/06 05:00:48;;;;;;;0.00;0.00;;;;;;;15.77;100.00;96634.41;5078619;28;20039;-74
2022/09/06 05:03:16;;;;;;;0.00;0.00;;;;;;;15.80;100.00;96635.75;5077767;28;20496;-74
2022/09/06 05:05:41;;;;;;;0.55;0.10;;;;;;;15.84;100.00;96634.91;5062285;28;20044;-75
2022/09/06 05:08:10;;;;;;;0.00;0.00;;;;;;;15.90;100.00;96626.78;5074429;28;20505;-75
2022/09/06 05:10:45;;;;;;;0.40;0.10;;;;;;;15.90;100.00;96635.69;5076100;28;20032;-75
2022/09/06 05:13:11;;;;;;;0.10;0.03;;;;;;;15.92;100.00;96630.00;5073300;28;20028;-72
2022/09/06 05:15:36;;;;;;;0.47;0.10;;;;;;;15.91;100.00;96633.81;5074871;28;20637;-72
2022/09/06 05:18:03;;;;;;;1.48;0.30;;;;;;;15.88;100.00;96638.69;5080964;28;20047;-73
2022/09/06 05:20:35;;;;;;;0.90;0.20;;;;;;;15.84;100.00;96637.59;5077958;28;20328;-75
2022/09/06 05:23:01;;;;;;;0.45;0.20;;;;;;;15.78;100.00;96643.28;5079266;28;20032;-75
2022/09/06 05:25:26;;;;;;;0.20;0.10;;;;;;;15.87;100.00;96647.84;5078693;28;20375;-76
2022/09/06 05:27:52;;;;;;;0.52;0.10;;;;;;;15.91;100.00;96642.69;5076838;28;20051;-75
2022/09/06 05:30:18;;;;;;;0.35;0.10;;;;;;;15.96;100.00;96645.38;5058824;28;20028;-75
2022/09/06 05:32:44;;;;;;;0.38;0.10;;;;;;;16.02;100.00;96649.66;5076056;28;20473;-75
2022/09/06 05:35:09;;;;;;;0.28;0.10;;;;;;;16.07;100.00;96649.63;5075471;28;20056;-76
2022/09/06 05:37:35;;;;;;;0.10;0.08;;;;;;;16.10;100.00;96646.34;5046313;28;20051;-76
2022/09/06 05:40:01;;;;;;;0.82;0.10;;;;;;;16.12;100.00;96651.50;5083460;28;20031;-76
2022/09/06 05:42:26;;;;;;;0.10;0.00;;;;;;;15.98;100.00;96655.91;5073493;28;20073;-76
2022/09/06 05:44:52;;;;;;;0.00;0.00;;;;;;;16.00;100.00;96646.44;5079001;28;20039;-76
2022/09/06 05:47:17;;;;;;;0.00;0.00;;;;;;;16.11;100.00;96652.59;5076436;28;20453;-76
2022/09/06 05:49:43;;;;;;;0.00;0.00;;;;;;;16.17;100.00;96654.16;5079800;28;20103;-76
2022/09/06 05:52:09;;;;;;;0.20;0.10;;;;;;;16.30;100.00;96650.03;5074969;28;20040;-75
2022/09/06 05:54:34;;;;;;;0.13;0.00;;;;;;;16.40;100.00;96650.75;5080975;28;20115;-75
2022/09/06 05:56:59;;;;;;;0.00;0.00;;;;;;;16.51;100.00;96656.91;5074184;28;20071;-75
2022/09/06 05:59:25;;;;;;;0.00;0.00;;;;;;;16.55;100.00;96643.66;5079099;28;20501;-75
2022/09/06 06:01:52;;;;;;;0.00;0.00;;;;;;;16.69;100.00;96652.75;5072434;28;20054;-75
2022/09/06 06:04:18;;;;;;;0.13;0.08;;;;;;;16.77;100.00;96654.03;5044270;28;20284;-75
2022/09/06 06:06:48;;;;;;;0.00;0.00;;;;;;;16.78;100.00;96650.25;5057489;28;20399;-75
2022/09/06 06:09:14;;;;;;;0.00;0.00;;;;;;;16.86;100.00;96658.53;5059310;28;20028;-75
2022/09/06 06:11:40;;;;;;;0.10;0.10;;;;;;;16.96;100.00;96654.94;5076048;28;20389;-75
2022/09/06 06:14:06;;;;;;;0.00;0.00;;;;;;;17.04;100.00;96653.53;5079564;28;20086;-75
2022/09/06 06:16:31;;;;;;;0.20;0.00;;;;;;;17.16;100.00;96653.97;5077447;28;20157;-75
2022/09/06 06:18:57;;;;;;;0.00;0.00;;;;;;;17.25;100.00;96655.75;5081210;28;20036;-75
2022/09/06 06:21:29;;;;;;;0.00;0.00;;;;;;;17.32;100.00;96658.13;5075459;28;20614;-75
2022/09/06 06:24:00;;;;;;;0.17;0.10;;;;;;;17.43;100.00;96661.50;5076553;28;20040;-75
2022/09/06 06:26:28;;;;;;;0.00;0.00;;;;;;;17.55;100.00;96659.22;5059845;28;20060;-76
2022/09/06 06:28:54;;;;;;;0.43;0.10;;;;;;;17.61;100.00;96662.69;5074222;28;20044;-75
2022/09/06 06:31:21;;;;;;;0.22;0.10;;;;;;;17.71;100.00;96668.81;5075626;28;20156;-76
2022/09/06 06:33:47;;;;;;;0.10;0.00;;;;;;;17.77;100.00;96658.72;5074460;28;20455;-75
2022/09/06 06:36:12;;;;;;;0.15;0.10;;;;;;;17.88;100.00;96665.63;5073493;28;20358;-75
2022/09/06 06:38:40;;;;;;;0.00;0.00;;;;;;;18.04;100.00;96666.22;5073510;28;20550;-75
2022/09/06 06:41:07;;;;;;;0.08;0.00;;;;;;;18.17;100.00;96664.72;5062885;28;20423;-75
2022/09/06 06:43:36;;;;;;;0.00;0.00;;;;;;;18.30;100.00;96655.88;5055981;28;20120;-76
2022/09/06 06:46:10;;;;;;;0.00;0.00;;;;;;;18.46;100.00;96659.16;5058874;28;20048;-76
2022/09/06 06:48:39;;;;;;;0.00;0.00;;;;;;;18.57;100.00;96664.13;5075987;28;20924;-75
2022/09/06 06:51:05;;;;;;;0.00;0.00;;;;;;;18.71;100.00;96658.78;5073684;28;20032;-76
2022/09/06 06:53:31;;;;;;;0.00;0.00;;;;;;;18.83;100.00;96672.72;5075990;28;20031;-75
2022/09/06 06:55:57;;;;;;;0.00;0.00;;;;;;;18.97;100.00;96667.31;5074536;28;20410;-75
2022/09/06 06:58:23;;;;;;;0.00;0.00;;;;;;;19.08;100.00;96663.34;5070091;28;21072;-74
2022/09/06 07:00:49;;;;;;;0.17;0.03;;;;;;;19.21;100.00;96672.59;5074471;28;20070;-75
2022/09/06 07:03:15;;;;;;;0.08;0.00;;;;;;;19.27;100.00;96663.25;5074818;28;20422;-75
2022/09/06 07:05:43;;;;;;;0.00;0.00;;;;;;;19.31;100.00;96658.06;5045684;28;20039;-75
2022/09/06 07:08:09;;;;;;;0.00;0.00;;;;;;;19.39;100.00;96668.22;5054381;28;20039;-75
2022/09/06 07:10:34;;;;;;;0.00;0.00;;;;;;;19.47;100.00;96662.09;5073594;28;20031;-75
2022/09/06 07:13:07;;;;;;;0.25;0.10;;;;;;;19.53;100.00;96658.16;5075933;28;20754;-75
2022/09/06 07:15:33;;;;;;;0.00;0.00;;;;;;;19.61;100.00;96660.22;5076573;28;20043;-75
2022/09/06 07:17:58;;;;;;;0.00;0.00;;;;;;;19.69;100.00;96664.97;5076282;28;20032;-75
2022/09/06 07:20:27;;;;;;;0.10;0.00;;;;;;;19.74;100.00;96662.13;5075497;28;20330;-75
2022/09/06 07:23:00;;;;;;;0.28;0.10;;;;;;;19.82;100.00;96671.47;5074601;28;20033;-76
2022/09/06 07:25:26;;;;;;;0.00;0.00;;;;;;;19.93;100.00;96666.66;5072369;28;20039;-76
2022/09/06 07:28:00;;;;;;;0.10;0.10;;;;;;;20.01;100.00;96661.31;5078550;28;20032;-75
2022/09/06 07:30:27;;;;;;;0.00;0.00;;;;;;;20.00;100.00;96661.63;5073862;28;20117;-75
2022/09/06 07:32:52;;;;;;;0.00;0.00;;;;;;;20.13;100.00;96663.50;5074791;28;20036;-75
2022/09/06 07:35:19;;;;;;;0.00;0.00;;;;;;;20.17;100.00;96667.22;5074894;28;20048;-75
2022/09/06 07:37:55;;;;;;;0.20;0.00;;;;;;;20.20;100.00;96668.50;5075911;28;20093;-75
2022/09/06 07:40:21;;;;;;;0.00;0.00;;;;;;;20.34;100.00;96671.22;5046386;28;20252;-75
2022/09/06 07:42:46;;;;;;;0.00;0.00;;;;;;;20.45;100.00;96665.25;5078608;28;20232;-75
2022/09/06 07:45:12;;;;;;;0.08;0.00;;;;;;;20.52;99.69;96673.00;5077388;28;20133;-75
2022/09/06 07:47:37;;;;;;;0.00;0.00;;;;;;;20.57;97.69;96670.16;5077481;28;20046;-75
2022/09/06 07:50:04;;;;;;;0.00;0.00;;;;;;;20.65;99.54;96674.06;5078505;28;20098;-75
2022/09/06 07:52:29;;;;;;;0.00;0.00;;;;;;;20.66;98.92;96673.75;5075994;28;20562;-75
2022/09/06 07:54:55;;;;;;;0.10;0.00;;;;;;;20.74;98.86;96666.78;5077154;28;20072;-75
2022/09/06 07:57:22;;;;;;;0.00;0.00;;;;;;;20.72;97.88;96674.44;5074209;28;20358;-75
2022/09/06 07:59:47;;;;;;;0.00;0.00;;;;;;;20.80;99.78;96669.06;5076864;28;20117;-75
2022/09/06 08:02:13;;;;;;;0.10;0.00;;;;;;;20.83;100.00;96673.88;5071528;28;20483;-75
2022/09/06 08:04:40;;;;;;;0.00;0.00;;;;;;;20.92;100.00;96681.28;5076179;28;20692;-75
2022/09/06 08:07:06;;;;;;;0.00;0.00;;;;;;;20.97;100.00;96678.47;5074508;28;20040;-75
2022/09/06 08:09:31;;;;;;;0.10;0.00;;;;;;;21.06;100.00;96677.41;5077700;28;20037;-75
2022/09/06 08:12:05;;;;;;;0.10;0.00;;;;;;;21.06;100.00;96684.75;5075871;28;20423;-75
2022/09/06 08:14:31;;;;;;;0.10;0.10;;;;;;;21.11;99.06;96680.00;5043359;28;20313;-75
2022/09/06 08:16:57;;;;;;;0.22;0.00;;;;;;;21.17;99.16;96677.97;5080159;28;20040;-75
2022/09/06 08:19:22;;;;;;;0.08;0.00;;;;;;;21.18;97.73;96674.13;5082361;28;20866;-75
2022/09/06 08:21:48;;;;;;;0.00;0.00;;;;;;;21.22;95.61;96674.28;5061161;28;20027;-75
2022/09/06 08:24:14;;;;;;;0.00;0.00;;;;;;;21.28;96.26;96682.06;5080295;28;20039;-75
2022/09/06 08:26:41;;;;;;;0.00;0.00;;;;;;;21.39;95.07;96671.69;5077821;28;20071;-75
2022/09/06 08:29:07;;;;;;;0.00;0.00;;;;;;;21.36;94.67;96675.06;5078677;28;20043;-75
2022/09/06 08:31:35;;;;;;;0.20;0.03;;;;;;;21.39;95.53;96672.50;5079896;28;20071;-75
2022/09/06 08:34:02;;;;;;;0.00;0.00;;;;;;;21.49;94.97;96673.38;5050411;28;20103;-75
2022/09/06 08:36:29;;;;;;;0.00;0.00;;;;;;;21.50;93.28;96666.78;5078888;28;20089;-75
2022/09/06 08:38:55;;;;;;;0.10;0.10;;;;;;;21.56;93.39;96676.44;5080310;28;20052;-75
2022/09/06 08:41:46;;;;;;;0.10;0.00;;;;;;;21.55;92.90;96675.59;5076607;28;20036;-75
2022/09/06 08:44:15;;;;;;;0.00;0.00;;;;;;;21.65;94.41;96677.28;5084360;28;20482;-75
2022/09/06 08:46:51;;;;;;;0.00;0.00;;;;;;;21.79;93.44;96677.16;5079144;28;20040;-75
2022/09/06 08:49:17;;;;;;;0.00;0.00;;;;;;;21.88;92.21;96670.63;5043611;28;20075;-75
2022/09/06 08:51:48;;;;;;;0.13;0.00;;;;;;;21.88;91.86;96676.09;5077907;28;20124;-75
2022/09/06 08:54:34;;;;;;;0.10;0.00;;;;;;;21.94;91.92;96674.81;5079571;28;20507;-75
2022/09/06 08:57:26;;;;;;;0.00;0.00;;;;;;;21.88;91.85;96669.84;5069999;28;20558;-75
2022/09/06 08:59:58;;;;;;;0.00;0.00;;;;;;;22.03;91.39;96665.88;5080470;28;20396;-75
2022/09/06 09:02:24;;;;;;;0.00;0.00;;;;;;;22.17;91.12;96659.16;5073752;28;20055;-75
2022/09/06 09:05:19;;;;;;;0.00;0.00;;;;;;;22.28;89.18;96664.34;5082478;28;20036;-75
2022/09/06 09:07:50;;;;;;;0.00;0.00;;;;;;;22.53;89.91;96658.91;5079448;28;20151;-75
2022/09/06 09:10:33;;;;;;;0.00;0.00;;;;;;;22.57;88.65;96650.06;5078488;28;20042;-75
2022/09/06 09:13:03;;;;;;;0.00;0.00;;;;;;;22.58;88.48;96651.69;5077394;28;20601;-75
2022/09/06 09:15:35;;;;;;;0.00;0.00;;;;;;;22.67;87.92;96650.56;5078423;28;20028;-75
2022/09/06 09:18:01;;;;;;;0.00;0.00;;;;;;;22.72;87.95;96655.88;5079392;28;20044;-75
2022/09/06 09:20:27;;;;;;;0.10;0.00;;;;;;;22.76;87.09;96648.63;5077514;28;20040;-75
2022/09/06 09:22:52;;;;;;;0.00;0.00;;;;;;;22.73;87.59;96648.50;5078311;28;20119;-75
2022/09/06 09:25:22;;;;;;;0.00;0.00;;;;;;;22.86;87.85;96639.34;5077728;28;20042;-75
2022/09/06 09:27:56;;;;;;;0.00;0.00;;;;;;;23.01;86.88;96644.28;5062668;28;20054;-75
2022/09/06 09:30:23;;;;;;;0.00;0.00;;;;;;;23.05;85.37;96645.25;5062589;28;20052;-75
2022/09/06 09:32:49;;;;;;;0.08;0.00;;;;;;;23.34;85.00;96636.34;5079676;28;20593;-75
2022/09/06 09:35:28;;;;;;;0.00;0.00;;;;;;;23.48;83.94;96649.78;5080632;28;20040;-75
2022/09/06 09:38:05;;;;;;;0.00;0.00;;;;;;;23.49;86.05;96643.19;5080259;28;20481;-75
2022/09/06 09:40:34;;;;;;;0.00;0.00;;;;;;;23.66;83.84;96642.38;5059934;28;20110;-75
2022/09/06 09:43:15;;;;;;;0.10;0.00;;;;;;;23.69;82.86;96638.97;5077610;28;20048;-75
2022/09/06 09:45:42;;;;;;;0.00;0.00;;;;;;;23.86;82.48;96633.41;5078173;28;20032;-75
2022/09/06 09:48:28;;;;;;;0.00;0.00;;;;;;;23.85;81.47;96631.03;5074709;28;20040;-75
2022/09/06 09:50:54;;;;;;;0.00;0.00;;;;;;;23.78;82.05;96625.28;5076173;28;20028;-75
2022/09/06 09:53:22;;;;;;;0.00;0.00;;;;;;;23.81;83.54;96635.53;5077809;28;20023;-75
2022/09/06 09:55:54;;;;;;;0.00;0.00;;;;;;;24.06;82.54;96634.59;5077119;28;20459;-75
2022/09/06 09:58:31;;;;;;;0.10;0.00;;;;;;;24.30;81.23;96628.50;5075363;28;20093;-76
2022/09/06 10:01:18;;;;;;;0.00;0.00;;;;;;;24.34;80.53;96632.19;5077293;28;20047;-75
2022/09/06 10:03:44;;;;;;;0.10;0.10;;;;;;;24.30;80.37;96633.16;5079596;28;20051;-76
2022/09/06 10:06:13;;;;;;;0.10;0.10;;;;;;;24.52;79.76;96615.66;5076761;28;20028;-75
2022/09/06 10:08:41;;;;;;;0.00;0.00;;;;;;;24.61;79.05;96624.59;5074634;28;20048;-75
2022/09/06 10:11:12;;;;;;;0.00;0.00;;;;;;;24.43;78.24;96615.72;5045900;28;20463;-75
2022/09/06 10:13:37;;;;;;;0.10;0.10;;;;;;;24.68;79.15;96620.19;5077153;28;20252;-75
2022/09/06 10:16:04;;;;;;;0.10;0.10;;;;;;;25.13;75.20;96616.69;5078231;28;20534;-75
2022/09/06 10:18:40;;;;;;;0.00;0.00;;;;;;;25.46;74.64;96611.19;5073092;28;20364;-75
2022/09/06 10:21:14;;;;;;;0.00;0.00;;;;;;;25.65;72.63;96610.63;5075922;28;20075;-75
2022/09/06 10:23:59;;;;;;;0.00;0.00;;;;;;;26.13;70.51;96608.22;5076046;28;20492;-75
2022/09/06 10:26:44;;;;;;;0.28;0.10;;;;;;;26.01;65.99;96606.31;5075408;28;20040;-75
2022/09/06 10:29:13;;;;;;;0.00;0.00;;;;;;;26.34;64.24;96609.66;4722242;28;10000466;-75
2022/09/06 10:31:38;;;;;;;0.10;0.10;;;;;;;26.26;62.94;96610.59;5073437;28;20050;-75
2022/09/06 10:34:39;;;;;;;0.10;0.10;;;;;;;27.11;58.48;96595.00;5055564;28;20052;-76
2022/09/06 10:37:26;;;;;;;0.17;0.10;;;;;;;27.88;51.33;96600.09;5008513;28;20127;-75
2022/09/06 10:40:00;;;;;;;0.10;0.10;;;;;;;28.71;47.78;96598.00;5071685;28;20059;-76
2022/09/06 10:42:53;;;;;;;0.10;0.10;;;;;;;30.49;42.18;96601.84;5072340;28;20031;-76
2022/09/06 10:45:32;;;;;;;0.00;0.00;;;;;;;33.09;36.49;96589.41;5061799;28;20318;-76
2022/09/06 10:48:20;;;;;;;0.10;0.10;;;;;;;34.88;31.64;96590.88;5055588;28;20048;-76
2022/09/06 10:50:51;;;;;;;0.05;0.05;;;;;;;35.93;30.80;96589.03;5072936;28;20297;-76
2022/09/06 10:53:46;;;;;;;0.10;0.10;;;;;;;36.82;28.50;96580.53;5073102;28;20027;-76
2022/09/06 10:56:23;;;;;;;0.10;0.10;;;;;;;36.81;27.37;96581.75;5062462;28;20048;-76
2022/09/06 10:59:10;;;;;;;0.10;0.10;;;;;;;36.61;27.42;96582.78;5071046;28;20440;-76
2022/09/06 11:01:58;;;;;;;0.10;0.10;;;;;;;37.92;27.01;96585.75;5070359;28;20219;-76
2022/09/06 11:04:33;;;;;;;0.05;0.05;;;;;;;39.87;24.16;96585.72;5071907;28;20257;-76
2022/09/06 11:07:04;;;;;;;0.00;0.00;;;;;;;40.45;23.73;96577.44;5072464;28;20032;-76
2022/09/06 11:09:40;;;;;;;0.05;0.05;;;;;;;41.95;21.95;96572.94;5073308;28;20047;-76
2022/09/06 11:12:16;;;;;;;0.00;0.00;;;;;;;42.55;21.51;96575.66;5073926;28;20074;-77
2022/09/06 11:14:42;;;;;;;0.00;0.00;;;;;;;43.30;21.23;96567.22;5073527;28;20051;-78
2022/09/06 11:17:13;;;;;;;0.10;0.10;;;;;;;42.49;21.89;96564.22;5053775;28;20189;-77
2022/09/06 11:20:05;;;;;;;0.10;0.10;;;;;;;41.20;20.89;96562.03;5074719;28;20055;-77
2022/09/06 11:22:42;;;;;;;0.10;0.10;;;;;;;42.28;21.51;96573.41;5089517;28;20040;-77
2022/09/06 11:25:26;;;;;;;0.10;0.10;;;;;;;44.55;18.66;96556.44;5057371;28;20126;-77
2022/09/06 11:27:57;;;;;;;0.10;0.10;;;;;;;42.52;20.38;96565.31;5043165;28;20043;-77
2022/09/06 11:30:24;;;;;;;0.10;0.10;;;;;;;43.20;20.75;96560.00;5024380;28;20056;-77
2022/09/06 11:33:04;;;;;;;0.08;0.08;;;;;;;43.97;20.00;96558.06;5054497;28;20048;-77
2022/09/06 11:35:31;;;;;;;0.00;0.00;;;;;;;44.35;18.59;96557.66;5069472;28;20044;-77
2022/09/06 11:38:26;;;;;;;0.15;0.10;;;;;;;43.35;19.08;96563.81;5054625;28;20076;-76
2022/09/06 11:41:01;;;;;;;0.10;0.10;;;;;;;45.06;18.02;96552.91;5067071;28;20330;-77
2022/09/06 11:43:51;;;;;;;0.00;0.00;;;;;;;46.05;16.41;96553.69;5069800;28;20044;-76